Time;durP1;ratioP1;P1;durP2;ratioP2;P2;SDS_P1;SDS_P2;PMS_P1;PMS_P2;Temp;Humidity;BMP_temperature;BMP_pressure;BME280_temperature;BME280_humidity;BME280_pressure;Samples;Min_cycle;Max_cycle;Signal;HPM_P1;HPM_P2
2022/04/20 00:01:18;;;;;;;1.80;0.60;;;20.20;37.00;19.30;101339.00;;;;5043245;28;20041;-64
2022/04/20 00:04:04;;;;;;;0.50;0.50;;;20.20;37.00;19.30;101338.00;;;;5045566;28;20038;-64
2022/04/20 00:06:50;;;;;;;0.85;0.60;;;20.20;37.00;19.30;101340.00;;;;5033529;28;20048;-64
2022/04/20 00:09:36;;;;;;;0.57;0.38;;;20.20;37.00;19.30;101329.00;;;;5043905;28;20045;-64
2022/04/20 00:12:22;;;;;;;1.95;0.50;;;20.20;37.00;19.30;101342.00;;;;5044866;28;20403;-65
2022/04/20 00:15:08;;;;;;;0.95;0.50;;;20.20;37.00;19.20;101331.00;;;;5041535;28;20053;-65
2022/04/20 00:17:54;;;;;;;0.50;0.50;;;20.20;37.00;19.20;101333.00;;;;5029365;28;20096;-64
2022/04/20 00:20:41;;;;;;;1.55;0.55;;;20.20;37.00;19.20;101334.00;;;;5036777;28;20110;-64
2022/04/20 00:23:27;;;;;;;0.57;0.40;;;20.20;37.00;19.30;101336.00;;;;5037641;28;20048;-64
2022/04/20 00:26:13;;;;;;;1.77;0.40;;;20.20;37.00;19.20;101338.00;;;;5046425;28;20068;-64
2022/04/20 00:28:59;;;;;;;1.02;0.65;;;20.20;37.10;19.20;101333.00;;;;5039371;28;20045;-64
2022/04/20 00:31:45;;;;;;;0.60;0.40;;;20.20;37.10;19.20;101336.00;;;;5038596;28;20040;-64
2022/04/20 00:34:31;;;;;;;0.93;0.55;;;20.20;37.10;19.20;101331.00;;;;5035271;28;20041;-64
2022/04/20 00:37:17;;;;;;;1.95;0.80;;;20.20;37.10;19.20;101335.00;;;;5041623;28;20040;-64
2022/04/20 00:40:04;;;;;;;0.60;0.50;;;20.20;37.10;19.20;101325.00;;;;5040121;28;20044;-64
2022/04/20 00:42:50;;;;;;;1.27;0.70;;;20.20;37.10;19.20;101340.00;;;;4995635;28;20045;-64
2022/04/20 00:45:36;;;;;;;0.90;0.60;;;20.10;37.10;19.20;101331.00;;;;5045160;28;20092;-64
2022/04/20 00:48:22;;;;;;;0.60;0.52;;;20.10;37.00;19.20;101334.00;;;;5008972;28;20039;-64
2022/04/20 00:51:08;;;;;;;1.25;0.80;;;20.10;37.00;19.20;101340.00;;;;5020687;28;20049;-64
2022/04/20 00:53:59;;;;;;;1.10;0.50;;;20.10;37.10;19.20;101341.00;;;;5037637;28;20060;-64
2022/04/20 00:56:45;;;;;;;1.10;0.80;;;20.10;37.10;19.20;101338.00;;;;5020260;28;20128;-64
2022/04/20 00:59:31;;;;;;;0.77;0.60;;;20.20;37.10;19.20;101340.00;;;;5044445;28;20064;-64
2022/04/20 01:02:17;;;;;;;1.92;0.60;;;20.10;37.10;19.20;101345.00;;;;5040756;28;20041;-64
2022/04/20 01:05:03;;;;;;;0.47;0.47;;;20.10;37.10;19.20;101344.00;;;;5021833;28;20795;-64
2022/04/20 01:07:49;;;;;;;0.60;0.50;;;20.10;37.10;19.20;101341.00;;;;5041456;28;20402;-64
2022/04/20 01:10:35;;;;;;;0.47;0.47;;;20.10;37.10;19.20;101343.00;;;;5040528;28;20045;-64
2022/04/20 01:13:21;;;;;;;1.00;0.40;;;20.10;37.10;19.20;101347.00;;;;5034413;28;20122;-65
2022/04/20 01:16:08;;;;;;;0.80;0.50;;;20.10;37.10;19.20;101342.00;;;;5040452;28;20541;-64
2022/04/20 01:18:54;;;;;;;1.98;0.60;;;20.10;37.10;19.20;101348.00;;;;5020672;28;20049;-64
2022/04/20 01:21:40;;;;;;;2.13;0.40;;;20.10;37.10;19.20;101345.00;;;;5022492;28;20039;-64
2022/04/20 01:24:26;;;;;;;0.45;0.45;;;20.10;37.10;19.20;101351.00;;;;5023978;28;20052;-65
2022/04/20 01:27:12;;;;;;;0.85;0.68;;;20.10;37.10;19.20;101347.00;;;;5034654;28;20033;-64
2022/04/20 01:29:58;;;;;;;0.50;0.40;;;20.10;37.10;19.10;101344.00;;;;5025690;28;20049;-65
2022/04/20 01:32:44;;;;;;;0.90;0.60;;;20.20;37.90;19.10;101340.00;;;;5032893;28;20045;-64
2022/04/20 01:35:30;;;;;;;1.10;0.60;;;20.10;37.10;19.20;101343.00;;;;5033890;28;20037;-64
2022/04/20 01:38:16;;;;;;;1.35;0.60;;;20.10;37.20;19.10;101339.00;;;;5034317;28;20410;-64
2022/04/20 01:41:02;;;;;;;0.85;0.55;;;20.10;37.20;19.10;101345.00;;;;5019964;28;20045;-64
2022/04/20 01:43:48;;;;;;;1.10;0.68;;;20.10;37.20;19.10;101343.00;;;;5039044;28;20045;-64
2022/04/20 01:46:35;;;;;;;1.23;0.73;;;20.10;37.20;19.10;101347.00;;;;5033279;28;20045;-65
2022/04/20 01:49:21;;;;;;;1.20;0.40;;;20.00;37.10;19.10;101345.00;;;;5032480;28;20043;-64
2022/04/20 01:52:07;;;;;;;1.08;0.60;;;20.00;37.10;19.10;101338.00;;;;5032692;28;20052;-64
2022/04/20 01:54:53;;;;;;;1.88;0.63;;;20.10;37.20;19.10;101344.00;;;;5021365;28;20044;-64
2022/04/20 01:57:39;;;;;;;0.98;0.70;;;20.10;37.20;19.10;101348.00;;;;5037119;28;20067;-64
2022/04/20 02:00:25;;;;;;;1.17;0.38;;;20.00;37.20;19.10;101346.00;;;;5032305;28;20048;-64
2022/04/20 02:03:11;;;;;;;1.05;0.68;;;20.00;37.20;19.10;101350.00;;;;5021448;28;20049;-64
2022/04/20 02:05:57;;;;;;;0.57;0.55;;;20.00;37.10;19.10;101350.00;;;;5032363;28;20362;-64
2022/04/20 02:08:44;;;;;;;1.60;0.73;;;20.00;37.10;19.10;101348.00;;;;5031928;28;20041;-64
2022/04/20 02:11:30;;;;;;;1.83;0.77;;;20.00;37.10;19.10;101346.00;;;;5034562;28;20036;-64
2022/04/20 02:14:16;;;;;;;1.52;0.47;;;20.00;37.20;19.10;101346.00;;;;5025790;28;20113;-64
2022/04/20 02:17:02;;;;;;;0.98;0.47;;;20.00;37.10;19.10;101347.00;;;;5022989;28;20049;-64
2022/04/20 02:19:49;;;;;;;0.70;0.68;;;20.00;37.10;19.10;101343.00;;;;5037929;28;20053;-64
2022/04/20 02:22:35;;;;;;;1.05;0.50;;;20.00;37.10;19.10;101343.00;;;;5015475;28;20051;-64
2022/04/20 02:25:21;;;;;;;0.85;0.60;;;20.00;37.10;19.10;101345.00;;;;5044991;28;20098;-64
2022/04/20 02:28:07;;;;;;;1.02;0.40;;;20.00;37.20;19.10;101341.00;;;;5035398;28;20442;-64
2022/04/20 02:30:53;;;;;;;0.70;0.45;;;20.00;37.10;19.10;101345.00;;;;5036640;28;20045;-64
2022/04/20 02:33:39;;;;;;;0.55;0.55;;;20.00;37.20;19.10;101346.00;;;;5037724;28;20045;-64
2022/04/20 02:36:25;;;;;;;0.75;0.50;;;20.00;37.10;19.10;101349.00;;;;5035557;28;20047;-64
2022/04/20 02:39:11;;;;;;;0.98;0.77;;;20.00;37.20;19.00;101342.00;;;;5020481;28;20085;-64
2022/04/20 02:41:58;;;;;;;0.57;0.57;;;20.00;37.10;19.10;101345.00;;;;5016578;28;20037;-64
2022/04/20 02:44:44;;;;;;;1.70;0.57;;;20.00;37.10;19.00;101352.00;;;;5008554;28;20537;-64
2022/04/20 02:47:30;;;;;;;0.88;0.43;;;19.90;37.10;19.00;101346.00;;;;5017513;28;20033;-64
2022/04/20 02:50:16;;;;;;;0.50;0.50;;;20.00;37.10;19.00;101351.00;;;;5018974;28;20088;-64
2022/04/20 02:53:02;;;;;;;0.73;0.50;;;19.90;37.10;19.00;101342.00;;;;5036015;28;20402;-64
2022/04/20 02:55:48;;;;;;;0.95;0.60;;;19.90;37.10;19.00;101347.00;;;;5044761;28;20139;-64
2022/04/20 02:58:34;;;;;;;1.65;0.63;;;20.00;37.20;19.00;101340.00;;;;5035327;28;20047;-64
2022/04/20 03:01:20;;;;;;;1.02;0.80;;;19.90;37.20;19.00;101342.00;;;;5023938;28;20033;-64
2022/04/20 03:04:06;;;;;;;0.88;0.55;;;19.90;37.20;19.00;101344.00;;;;5030049;28;20037;-65
2022/04/20 03:06:52;;;;;;;0.73;0.40;;;19.90;37.10;19.00;101342.00;;;;5032345;28;20044;-64
2022/04/20 03:09:38;;;;;;;0.73;0.50;;;19.90;37.10;19.00;101345.00;;;;5036283;28;20419;-64
2022/04/20 03:12:24;;;;;;;0.85;0.70;;;19.90;37.10;19.00;101344.00;;;;5027945;28;20491;-64
2022/04/20 03:15:10;;;;;;;0.90;0.63;;;19.90;37.20;19.00;101344.00;;;;5041977;28;20475;-64
2022/04/20 03:17:57;;;;;;;1.10;0.77;;;19.90;37.10;19.00;101343.00;;;;5041744;28;20045;-64
2022/04/20 03:20:43;;;;;;;1.67;0.60;;;19.90;37.00;19.00;101337.00;;;;5043337;28;20420;-64
2022/04/20 03:23:30;;;;;;;0.98;0.50;;;19.90;37.10;19.00;101347.00;;;;5038618;28;20048;-64
2022/04/20 03:26:16;;;;;;;1.75;0.60;;;19.90;37.20;19.00;101342.00;;;;5034075;28;20139;-64
2022/04/20 03:29:02;;;;;;;1.63;0.50;;;19.90;37.10;19.00;101341.00;;;;5039261;28;20623;-64
2022/04/20 03:31:48;;;;;;;1.23;0.60;;;19.90;37.20;19.00;101357.00;;;;5041517;28;20051;-64
2022/04/20 03:34:34;;;;;;;1.92;0.70;;;19.90;37.20;19.00;101345.00;;;;5043559;28;20098;-64
2022/04/20 03:37:20;;;;;;;0.88;0.60;;;19.90;37.10;19.00;101350.00;;;;5008987;28;20051;-65
2022/04/20 03:40:08;;;;;;;0.50;0.40;;;19.90;37.10;19.00;101348.00;;;;5043510;28;20041;-64
2022/04/20 03:42:54;;;;;;;0.60;0.55;;;19.90;37.10;19.00;101356.00;;;;5022110;28;20081;-64
2022/04/20 03:45:40;;;;;;;0.93;0.60;;;19.90;37.10;18.90;101349.00;;;;5038808;28;20045;-64
2022/04/20 03:48:26;;;;;;;1.98;0.70;;;19.90;37.10;18.90;101350.00;;;;5039253;28;20115;-64
2022/04/20 03:51:12;;;;;;;0.80;0.60;;;19.80;37.10;18.90;101361.00;;;;5044387;28;20040;-64
2022/04/20 03:53:58;;;;;;;0.95;0.57;;;19.80;37.30;18.90;101351.00;;;;5040187;28;20314;-64
2022/04/20 03:59:49;;;;;;;0.98;0.60;;;19.80;37.00;18.90;101358.00;;;;5029598;28;20053;-65
2022/04/20 04:02:35;;;;;;;3.85;0.70;;;19.80;37.00;18.90;101362.00;;;;5036633;28;20075;-64
2022/04/20 04:05:21;;;;;;;1.27;0.60;;;19.80;37.00;18.90;101359.00;;;;5038825;28;20048;-64
2022/04/20 04:08:07;;;;;;;1.17;0.65;;;19.80;37.70;18.90;101360.00;;;;5033792;28;20048;-64
2022/04/20 04:10:53;;;;;;;1.15;0.55;;;19.80;37.00;18.90;101362.00;;;;5034632;28;20049;-64
2022/04/20 04:13:39;;;;;;;1.15;0.70;;;19.80;37.00;18.90;101358.00;;;;5034165;28;20395;-64
2022/04/20 04:16:26;;;;;;;1.10;0.63;;;19.80;36.90;18.90;101363.00;;;;5036430;28;20048;-64
2022/04/20 04:19:12;;;;;;;0.90;0.60;;;19.80;37.00;18.90;101367.00;;;;5036130;28;20045;-64
2022/04/20 04:21:58;;;;;;;1.13;0.70;;;19.80;37.00;18.90;101375.00;;;;5035315;28;20037;-64
2022/04/20 04:24:44;;;;;;;1.75;0.70;;;19.90;37.00;18.90;101370.00;;;;5037094;28;20450;-64
2022/04/20 04:27:30;;;;;;;0.77;0.60;;;19.80;36.90;18.90;101375.00;;;;5033175;28;20044;-64
2022/04/20 04:30:16;;;;;;;1.15;0.65;;;19.80;36.90;18.90;101368.00;;;;5035174;28;20445;-64
2022/04/20 04:33:02;;;;;;;1.17;0.70;;;19.90;37.10;18.90;101375.00;;;;5032556;28;20049;-64
2022/04/20 04:35:48;;;;;;;1.23;0.70;;;19.80;37.00;18.90;101381.00;;;;5035551;28;20052;-64
2022/04/20 04:38:34;;;;;;;1.90;0.68;;;19.80;36.90;18.90;101374.00;;;;5031644;28;20049;-64
2022/04/20 04:41:21;;;;;;;0.93;0.63;;;19.80;36.90;18.90;101385.00;;;;5018366;28;20038;-64
2022/04/20 04:44:07;;;;;;;0.63;0.45;;;19.80;37.00;18.90;101383.00;;;;5036717;28;20045;-64
2022/04/20 04:49:58;;;;;;;1.00;0.70;;;19.80;36.90;18.90;101390.00;;;;5030202;28;20094;-64
2022/04/20 04:52:44;;;;;;;2.47;0.60;;;19.80;36.90;18.90;101387.00;;;;5036907;28;20429;-64
2022/04/20 04:55:30;;;;;;;0.82;0.55;;;19.80;36.90;18.80;101398.00;;;;5035868;28;20056;-64
2022/04/20 04:58:16;;;;;;;1.70;0.90;;;19.70;36.80;18.80;101394.00;;;;5039238;28;20044;-64
2022/04/20 05:01:02;;;;;;;1.30;0.70;;;19.70;36.80;18.80;101403.00;;;;5037974;28;20473;-64
2022/04/20 05:03:48;;;;;;;0.70;0.60;;;19.70;36.80;18.80;101398.00;;;;5036974;28;20041;-64
2022/04/20 05:06:36;;;;;;;1.33;0.60;;;19.70;36.80;18.80;101405.00;;;;5033162;28;20407;-64
2022/04/20 05:09:22;;;;;;;0.95;0.77;;;19.70;36.80;18.80;101409.00;;;;5035534;28;20086;-64
2022/04/20 05:12:09;;;;;;;1.13;0.60;;;19.70;36.90;18.80;101403.00;;;;5042305;28;20063;-64
2022/04/20 05:14:55;;;;;;;1.42;0.70;;;19.70;36.90;18.80;101410.00;;;;5033358;28;20505;-64
2022/04/20 05:17:41;;;;;;;2.00;0.70;;;19.80;36.90;18.80;101409.00;;;;5022294;28;20045;-65
2022/04/20 05:20:27;;;;;;;0.95;0.65;;;19.80;36.90;18.80;101410.00;;;;5043789;28;20037;-64
2022/04/20 05:23:13;;;;;;;0.70;0.63;;;19.70;36.90;18.80;101405.00;;;;5037147;28;20041;-64
2022/04/20 05:25:59;;;;;;;0.73;0.50;;;19.70;37.00;18.80;101400.00;;;;5039517;28;20040;-64
2022/04/20 05:28:45;;;;;;;0.70;0.60;;;19.70;37.00;18.80;101400.00;;;;5037917;28;20384;-64
2022/04/20 05:31:31;;;;;;;1.13;0.70;;;19.70;37.00;18.80;101405.00;;;;5031964;28;20056;-64
2022/04/20 05:34:17;;;;;;;0.40;0.40;;;19.70;37.10;18.80;101401.00;;;;5036552;28;20048;-64
2022/04/20 05:43:13;;;;;;;1.40;0.70;;;19.70;37.10;18.80;101400.00;;;;5008592;28;20039;-64
2022/04/20 05:45:59;;;;;;;1.30;0.75;;;19.70;37.10;18.80;101402.00;;;;5036041;28;20053;-64
2022/04/20 05:48:45;;;;;;;1.25;0.82;;;19.70;37.20;18.80;101406.00;;;;5039111;28;20051;-64
2022/04/20 05:51:32;;;;;;;1.00;0.60;;;19.70;37.30;18.80;101403.00;;;;5030065;28;20455;-64
2022/04/20 05:54:18;;;;;;;0.90;0.57;;;19.60;37.20;18.80;101407.00;;;;5028386;28;20047;-64
2022/04/20 05:57:04;;;;;;;1.58;0.65;;;19.60;37.30;18.80;101400.00;;;;5024969;28;20065;-64
2022/04/20 05:59:50;;;;;;;1.08;0.85;;;19.60;37.30;18.80;101408.00;;;;5020286;28;20045;-64
2022/04/20 06:02:36;;;;;;;1.85;0.70;;;19.60;37.20;18.80;101401.00;;;;5037278;28;20079;-64
2022/04/20 06:05:22;;;;;;;1.00;0.90;;;19.70;37.30;18.80;101406.00;;;;5035760;28;20082;-65
2022/04/20 06:08:08;;;;;;;1.02;0.70;;;19.60;37.30;18.80;101410.00;;;;5036527;28;20505;-64
2022/04/20 06:10:57;;;;;;;1.05;0.70;;;19.60;37.30;18.70;101414.00;;;;5039393;28;20048;-64
2022/04/20 06:13:43;;;;;;;0.77;0.70;;;19.70;37.30;18.80;101416.00;;;;5035919;28;20068;-64
2022/04/20 06:16:29;;;;;;;1.15;0.75;;;19.60;37.30;18.80;101419.00;;;;5034778;28;20045;-64
2022/04/20 06:19:16;;;;;;;1.30;0.80;;;19.60;37.30;18.80;101416.00;;;;5032912;28;20206;-64
2022/04/20 06:22:02;;;;;;;0.95;0.60;;;19.60;37.30;18.80;101416.00;;;;5016820;28;20041;-64
2022/04/20 06:24:48;;;;;;;2.15;1.00;;;19.60;37.30;18.70;101415.00;;;;5022601;28;20045;-64
2022/04/20 06:27:34;;;;;;;0.98;0.70;;;19.60;37.30;18.70;101414.00;;;;5034168;28;20474;-64
2022/04/20 06:30:20;;;;;;;0.95;0.70;;;19.70;37.30;18.70;101418.00;;;;5038463;28;20048;-65
2022/04/20 06:33:06;;;;;;;1.80;0.88;;;19.60;37.30;18.80;101409.00;;;;5037679;28;20395;-64
2022/04/20 06:35:53;;;;;;;1.88;0.75;;;19.60;37.30;18.80;101412.00;;;;5050135;28;20086;-64
2022/04/20 06:38:39;;;;;;;1.38;0.85;;;19.60;37.30;18.80;101403.00;;;;5036524;28;20122;-64
2022/04/20 06:41:25;;;;;;;1.83;0.82;;;19.70;37.30;18.80;101407.00;;;;5043540;28;20397;-64
2022/04/20 06:44:11;;;;;;;0.65;0.65;;;19.60;37.20;18.70;101409.00;;;;5040336;28;20041;-64
2022/04/20 06:46:57;;;;;;;1.25;0.77;;;19.60;37.30;18.80;101413.00;;;;5034118;28;20072;-65
2022/04/20 06:49:44;;;;;;;2.80;0.80;;;19.70;37.40;18.80;101414.00;;;;5035814;28;20139;-64
2022/04/20 06:58:41;;;;;;;1.50;0.70;;;19.60;37.30;18.70;101406.00;;;;5033329;28;20504;-64
2022/04/20 07:01:27;;;;;;;1.27;0.75;;;19.60;37.20;18.70;101414.00;;;;5030691;28;20375;-64
2022/04/20 07:04:13;;;;;;;1.52;0.70;;;19.50;37.20;18.70;101411.00;;;;5035692;28;20041;-64
2022/04/20 07:06:59;;;;;;;0.93;0.60;;;19.70;37.40;18.70;101412.00;;;;5030507;28;20068;-64
2022/04/20 07:09:46;;;;;;;2.10;0.88;;;19.60;37.40;18.70;101414.00;;;;5033556;28;20116;-64
2022/04/20 07:12:32;;;;;;;0.85;0.80;;;19.70;37.40;18.70;101419.00;;;;5030377;28;20041;-64
2022/04/20 07:15:19;;;;;;;1.17;0.80;;;19.70;37.30;18.70;101411.00;;;;5036156;28;20455;-65
2022/04/20 07:18:05;;;;;;;1.70;0.65;;;19.60;37.40;18.70;101415.00;;;;5042369;28;20037;-64
2022/04/20 07:20:51;;;;;;;0.80;0.77;;;19.70;37.30;18.70;101414.00;;;;5021186;28;20128;-64
2022/04/20 07:23:38;;;;;;;0.98;0.88;;;19.70;37.30;18.70;101415.00;;;;5035301;28;20041;-64
2022/04/20 07:26:26;;;;;;;1.30;0.73;;;19.50;37.20;18.80;101415.00;;;;5025897;28;20036;-64
2022/04/20 07:29:12;;;;;;;2.30;1.00;;;19.60;37.40;18.80;101417.00;;;;5037940;28;20045;-64
2022/04/20 07:31:58;;;;;;;1.20;0.80;;;19.70;37.30;18.80;101408.00;;;;5039045;28;20255;-64
2022/04/20 07:34:44;;;;;;;0.68;0.68;;;19.70;37.40;18.80;101408.00;;;;5043148;28;20042;-64
2022/04/20 07:37:31;;;;;;;1.50;0.90;;;19.70;37.30;18.80;101406.00;;;;5035936;28;20045;-64
2022/04/20 07:40:17;;;;;;;1.00;0.88;;;19.60;37.30;18.80;101411.00;;;;5040281;28;20060;-64
2022/04/20 07:43:03;;;;;;;1.65;1.23;;;19.60;37.30;18.80;101407.00;;;;5033025;28;20061;-64
2022/04/20 07:45:49;;;;;;;1.77;1.00;;;19.70;37.50;18.80;101416.00;;;;5038201;28;20037;-64
2022/04/20 07:48:35;;;;;;;1.50;0.90;;;19.70;37.50;18.80;101411.00;;;;5036043;28;20370;-64
2022/04/20 07:51:21;;;;;;;1.13;0.73;;;19.70;37.40;18.80;101413.00;;;;5033715;28;20047;-64
2022/04/20 07:54:07;;;;;;;1.98;0.80;;;19.70;37.40;18.80;101413.00;;;;5023910;28;20045;-64
2022/04/20 07:56:53;;;;;;;1.65;1.02;;;19.70;37.40;18.80;101415.00;;;;5044915;28;20049;-64
2022/04/20 07:59:40;;;;;;;1.67;0.98;;;19.70;37.40;18.80;101415.00;;;;5032873;28;20052;-64
2022/04/20 08:02:26;;;;;;;2.60;0.80;;;19.70;37.50;18.80;101422.00;;;;5036271;28;20475;-64
2022/04/20 08:05:14;;;;;;;1.90;0.85;;;19.70;37.40;18.80;101416.00;;;;5041141;28;20040;-64
2022/04/20 08:08:00;;;;;;;3.00;1.10;;;19.70;37.50;18.80;101421.00;;;;5042339;28;20040;-65
2022/04/20 08:10:46;;;;;;;2.55;0.70;;;19.70;37.50;18.80;101418.00;;;;5038734;28;20049;-64
2022/04/20 08:16:37;;;;;;;1.17;0.90;;;19.70;37.40;18.80;101425.00;;;;5047572;28;20059;-64
2022/04/20 08:19:24;;;;;;;1.17;1.00;;;19.70;37.40;18.80;101423.00;;;;5051952;28;20044;-64
2022/04/20 08:22:10;;;;;;;1.48;0.85;;;19.70;37.50;18.80;101429.00;;;;5023131;28;20037;-64
2022/04/20 08:24:56;;;;;;;1.33;0.77;;;19.70;37.50;18.80;101430.00;;;;5021973;28;20045;-64
2022/04/20 08:27:42;;;;;;;1.17;0.90;;;19.70;37.50;18.80;101429.00;;;;5020900;28;20049;-64
2022/04/20 08:30:28;;;;;;;2.97;1.00;;;19.80;37.60;18.80;101439.00;;;;5033262;28;20119;-64
2022/04/20 08:33:14;;;;;;;4.07;0.80;;;19.70;37.50;18.80;101435.00;;;;5035808;28;20710;-64
2022/04/20 08:36:00;;;;;;;2.05;1.02;;;19.70;37.60;18.80;101447.00;;;;5035024;28;20110;-64
2022/04/20 08:38:46;;;;;;;0.80;0.80;;;19.70;37.60;18.80;101430.00;;;;5034953;28;20049;-64
2022/04/20 08:41:34;;;;;;;2.45;0.90;;;19.70;37.60;18.80;101428.00;;;;5034855;28;20052;-64
2022/04/20 08:44:28;;;;;;;1.27;0.82;;;19.70;37.70;18.80;101428.00;;;;5036445;28;20112;-64
2022/04/20 08:47:22;;;;;;;1.63;1.00;;;19.70;37.70;18.80;101432.00;;;;5026114;28;20045;-64
2022/04/20 08:50:09;;;;;;;1.00;0.80;;;19.80;37.70;18.80;101433.00;;;;5033373;28;20052;-64
2022/04/20 08:52:56;;;;;;;2.30;1.10;;;19.80;37.70;18.80;101436.00;;;;5033753;28;20045;-65
2022/04/20 08:55:43;;;;;;;1.75;0.93;;;19.80;37.80;18.80;101427.00;;;;5041105;28;20036;-64
2022/04/20 08:58:29;;;;;;;1.45;0.98;;;19.70;37.60;18.80;101432.00;;;;5005489;28;20103;-64
2022/04/20 09:01:16;;;;;;;0.82;0.65;;;19.80;37.70;18.80;101431.00;;;;5029343;28;20049;-64
2022/04/20 09:04:03;;;;;;;3.90;1.10;;;19.80;37.70;18.80;101433.00;;;;5024221;28;20059;-64
2022/04/20 09:06:49;;;;;;;1.00;0.90;;;19.80;37.70;18.80;101438.00;;;;5025740;28;20287;-64
2022/04/20 09:09:35;;;;;;;1.70;0.80;;;19.80;37.70;18.80;101421.00;;;;5039311;28;20041;-64
2022/04/20 09:12:22;;;;;;;1.27;1.00;;;19.80;37.80;18.80;101413.00;;;;5036848;28;20124;-64
2022/04/20 09:15:09;;;;;;;1.05;0.68;;;19.80;37.70;18.80;101426.00;;;;5041278;28;20507;-64
2022/04/20 09:17:56;;;;;;;0.80;0.75;;;19.80;37.80;18.80;101420.00;;;;5044165;28;20036;-64
2022/04/20 09:20:42;;;;;;;1.40;0.70;;;19.80;37.70;18.80;101412.00;;;;5037875;28;20044;-64
2022/04/20 09:23:29;;;;;;;2.05;1.48;;;19.80;37.80;18.80;101414.00;;;;5038795;28;20109;-64
2022/04/20 09:26:19;;;;;;;1.33;0.90;;;19.80;37.80;18.80;101413.00;;;;5035064;28;20041;-64
2022/04/20 09:29:08;;;;;;;2.10;1.10;;;19.80;37.80;18.80;101408.00;;;;5027232;28;20080;-65
2022/04/20 09:31:54;;;;;;;1.77;0.93;;;19.80;37.80;18.80;101410.00;;;;5043290;28;20065;-64
2022/04/20 09:34:56;;;;;;;1.50;0.93;;;19.80;37.80;18.80;101410.00;;;;5039422;28;20103;-64
2022/04/20 09:37:43;;;;;;;2.70;1.00;;;19.80;37.80;18.80;101408.00;;;;5036538;28;20037;-64
2022/04/20 09:40:52;;;;;;;1.00;0.70;;;19.80;37.70;18.80;101404.00;;;;5014616;28;20043;-64
2022/04/20 09:43:38;;;;;;;;;;;19.80;37.70;18.80;101399.00;;;;5037913;28;20063;-64
2022/04/20 09:49:29;;;;;;;1.85;1.10;;;19.80;37.50;18.80;101398.00;;;;5033399;28;20402;-64
2022/04/20 09:52:15;;;;;;;1.20;0.90;;;19.80;37.50;18.80;101404.00;;;;5009663;28;20387;-64
2022/04/20 09:55:01;;;;;;;1.02;0.77;;;19.80;37.60;18.80;101400.00;;;;5028613;28;20041;-64
2022/04/20 09:57:47;;;;;;;0.93;0.80;;;19.80;37.60;18.80;101389.00;;;;5036099;28;20056;-64
2022/04/20 10:00:40;;;;;;;1.58;0.85;;;19.80;37.60;18.80;101391.00;;;;5032624;28;20641;-64
2022/04/20 10:03:28;;;;;;;3.17;0.90;;;19.80;37.60;18.80;101391.00;;;;5024184;28;20030;-64
2022/04/20 10:06:14;;;;;;;2.40;0.98;;;19.80;37.60;18.80;101390.00;;;;5040318;28;20036;-64
2022/04/20 10:09:01;;;;;;;1.17;0.85;;;19.80;37.60;18.80;101388.00;;;;5046894;28;20107;-64
2022/04/20 10:11:47;;;;;;;1.60;0.80;;;19.80;37.60;18.80;101391.00;;;;5042544;28;20057;-64
2022/04/20 10:17:45;;;;;;;1.83;0.82;;;19.80;37.60;18.80;101386.00;;;;5021851;28;20185;-64
2022/04/20 10:20:32;;;;;;;0.77;0.68;;;19.80;37.50;18.80;101374.00;;;;5027239;28;20462;-64
2022/04/20 10:23:20;;;;;;;1.83;0.80;;;19.80;37.40;18.80;101377.00;;;;5024233;28;20862;-64
2022/04/20 10:26:10;;;;;;;0.80;0.50;;;19.80;37.40;18.90;101372.00;;;;5039261;28;20060;-64
2022/04/20 10:29:10;;;;;;;1.10;0.57;;;19.80;37.30;18.90;101368.00;;;;5030941;28;20032;-64
2022/04/20 10:32:22;;;;;;;0.70;0.40;;;19.80;37.40;18.90;101362.00;;;;4997442;28;20407;-64
2022/04/20 10:35:08;;;;;;;1.30;0.75;;;19.80;37.40;18.90;101369.00;;;;5036118;28;20056;-64
2022/04/20 10:38:10;;;;;;;1.73;0.70;;;19.90;37.40;18.90;101358.00;;;;5031984;28;20056;-64
2022/04/20 10:41:13;;;;;;;2.95;0.75;;;19.90;37.40;18.90;101352.00;;;;5033536;28;20459;-64
2022/04/20 10:44:06;;;;;;;1.63;0.88;;;19.80;37.30;18.90;101352.00;;;;5036859;28;20045;-65
2022/04/20 10:47:04;;;;;;;1.23;0.80;;;19.90;37.40;18.90;101341.00;;;;5034986;28;20573;-65
2022/04/20 10:49:51;;;;;;;0.82;0.55;;;19.90;37.40;18.90;101348.00;;;;5036478;28;20039;-65
2022/04/20 10:52:38;;;;;;;0.70;0.70;;;19.80;37.40;18.90;101344.00;;;;5025007;28;20047;-65
2022/04/20 10:55:44;;;;;;;0.90;0.80;;;19.90;37.50;18.90;101332.00;;;;5026928;28;20040;-65
2022/04/20 10:58:30;;;;;;;2.17;1.40;;;19.90;37.40;18.90;101332.00;;;;5034549;28;20072;-65
2022/04/20 11:01:17;;;;;;;1.42;0.73;;;19.90;37.30;18.90;101339.00;;;;5033829;28;20064;-65
2022/04/20 11:04:07;;;;;;;0.90;0.70;;;19.90;37.30;18.90;101334.00;;;;5006386;28;20044;-65
2022/04/20 11:06:59;;;;;;;1.67;0.70;;;19.90;37.30;18.90;101327.00;;;;5029198;28;20071;-65
2022/04/20 11:10:05;;;;;;;1.65;0.80;;;19.90;37.20;18.90;101313.00;;;;5032106;28;20037;-64
2022/04/20 11:19:09;;;;;;;2.20;1.15;;;19.90;37.30;18.90;101315.00;;;;5020219;28;20044;-65
2022/04/20 11:22:06;;;;;;;3.03;0.50;;;20.00;37.30;18.90;101321.00;;;;5010300;28;20098;-65
2022/04/20 11:25:02;;;;;;;0.60;0.60;;;19.90;37.40;18.90;101310.00;;;;5030250;28;20060;-65
2022/04/20 11:27:48;;;;;;;0.80;0.60;;;19.90;37.30;18.90;101313.00;;;;5030198;28;20045;-65
2022/04/20 11:30:35;;;;;;;1.50;0.70;;;20.00;37.30;18.90;101306.00;;;;5038684;28;20053;-64
2022/04/20 11:33:21;;;;;;;2.20;0.70;;;20.00;37.30;18.90;101303.00;;;;5034639;28;20041;-65
2022/04/20 11:36:11;;;;;;;1.63;0.60;;;20.00;37.30;18.90;101305.00;;;;5019178;28;20056;-65
2022/04/20 11:38:59;;;;;;;0.80;0.52;;;20.00;37.30;19.00;101296.00;;;;5040626;28;20258;-65
2022/04/20 11:41:50;;;;;;;2.10;0.80;;;20.00;37.30;19.00;101299.00;;;;5023678;28;20398;-64
2022/04/20 11:44:38;;;;;;;1.02;0.65;;;20.00;37.20;19.00;101286.00;;;;5024118;28;20171;-65
2022/04/20 11:47:24;;;;;;;1.40;0.70;;;20.00;37.30;19.00;101287.00;;;;5037320;28;20547;-65
2022/04/20 11:50:11;;;;;;;1.00;0.90;;;19.90;37.20;19.00;101292.00;;;;5028019;28;20055;-65
2022/04/20 11:53:02;;;;;;;1.17;0.73;;;20.10;37.40;19.00;101280.00;;;;5033999;28;20049;-65
2022/04/20 11:55:49;;;;;;;2.25;0.65;;;20.00;37.40;19.00;101271.00;;;;5038925;28;20552;-65
2022/04/20 11:58:36;;;;;;;0.88;0.52;;;20.10;37.40;19.00;101280.00;;;;5039408;28;20410;-65
2022/04/20 12:01:25;;;;;;;1.13;0.70;;;20.10;37.50;19.00;101284.00;;;;5034091;28;20410;-65
2022/04/20 12:04:15;;;;;;;1.83;0.90;;;20.10;37.40;19.00;101277.00;;;;5047282;28;20037;-65
2022/04/20 12:07:01;;;;;;;3.00;0.80;;;20.10;37.50;19.00;101274.00;;;;5021592;28;20128;-65
2022/04/20 12:09:53;;;;;;;1.65;0.70;;;20.10;37.50;19.00;101278.00;;;;5027245;28;20045;-65
2022/04/20 12:12:42;;;;;;;1.73;0.82;;;20.10;37.50;19.00;101278.00;;;;5032454;28;20124;-65
2022/04/20 12:15:28;;;;;;;0.85;0.50;;;20.20;37.60;19.00;101269.00;;;;5027335;28;20462;-65
2022/04/20 12:18:14;;;;;;;1.45;0.80;;;20.20;37.60;19.00;101266.00;;;;5043694;28;20406;-65
2022/04/20 12:21:00;;;;;;;1.90;0.63;;;20.10;37.50;19.00;101269.00;;;;5038226;28;20402;-65
2022/04/20 12:23:46;;;;;;;0.80;0.70;;;20.20;37.50;19.00;101268.00;;;;5039474;28;20037;-65
2022/04/20 12:26:33;;;;;;;0.98;0.50;;;20.10;37.40;19.00;101267.00;;;;5025170;28;20063;-65
2022/04/20 12:29:23;;;;;;;0.80;0.60;;;20.20;37.40;19.00;101266.00;;;;5042134;28;20242;-65
2022/04/20 12:32:09;;;;;;;1.00;0.65;;;20.20;37.40;19.00;101263.00;;;;5019005;28;20053;-65
2022/04/20 12:35:01;;;;;;;1.00;0.63;;;20.20;37.50;19.00;101254.00;;;;5031424;28;20048;-64
2022/04/20 12:37:52;;;;;;;1.77;0.95;;;20.30;37.70;19.10;101259.00;;;;5026266;28;20624;-65
2022/04/20 12:40:38;;;;;;;0.93;0.63;;;20.20;37.60;19.10;101255.00;;;;5027216;28;20041;-65
2022/04/20 12:43:33;;;;;;;1.10;0.65;;;20.30;37.60;19.10;101246.00;;;;5039868;28;20045;-64
2022/04/20 12:46:19;;;;;;;0.65;0.50;;;20.30;37.60;19.10;101235.00;;;;5024572;28;20033;-65
2022/04/20 12:49:05;;;;;;;1.15;0.75;;;20.30;37.60;19.10;101239.00;;;;5048222;28;20311;-64